createdAt,value
2022-10-20T00:04:18.367Z,18.10
2022-10-20T00:06:45.016Z,17.58
2022-10-20T00:09:11.625Z,18.23
2022-10-20T00:11:38.156Z,19.17
2022-10-20T00:14:05.104Z,16.23
2022-10-20T00:16:36.366Z,15.25
2022-10-20T00:19:02.862Z,20.98
2022-10-20T00:21:29.400Z,16.60
2022-10-20T00:23:57.208Z,17.05
2022-10-20T00:26:25.901Z,15.25
2022-10-20T00:28:53.323Z,15.30
2022-10-20T00:31:21.647Z,15.90
2022-10-20T00:33:48.347Z,16.02
2022-10-20T00:36:17.944Z,15.93
2022-10-20T00:38:45.164Z,18.45
2022-10-20T00:41:19.558Z,16.75
2022-10-20T00:43:57.628Z,15.10
2022-10-20T00:46:28.572Z,20.77
2022-10-20T00:48:58.026Z,19.05
2022-10-20T00:51:27.715Z,15.43
2022-10-20T00:54:00.175Z,14.73
2022-10-20T00:56:26.801Z,17.13
2022-10-20T00:58:54.161Z,21.92
2022-10-20T01:01:20.645Z,15.70
2022-10-20T01:03:50.605Z,20.95
2022-10-20T01:06:20.103Z,17.73
2022-10-20T01:08:46.664Z,18.17
2022-10-20T01:11:18.294Z,17.00
2022-10-20T01:14:14.934Z,20.08
2022-10-20T01:16:47.742Z,16.58
2022-10-20T01:19:14.064Z,18.67
2022-10-20T01:21:56.932Z,17.48
2022-10-20T01:24:51.479Z,17.73
2022-10-20T01:27:35.023Z,20.83
2022-10-20T01:30:07.644Z,18.85
2022-10-20T01:32:47.170Z,17.92
2022-10-20T01:35:25.990Z,19.85
2022-10-20T01:38:30.291Z,20.48
2022-10-20T01:41:01.671Z,20.25
2022-10-20T01:43:32.588Z,19.80
2022-10-20T01:46:01.103Z,19.27
2022-10-20T01:48:32.556Z,19.55
2022-10-20T01:51:00.849Z,18.85
2022-10-20T01:53:27.966Z,21.38
2022-10-20T01:55:57.330Z,22.67
2022-10-20T01:58:29.499Z,18.70
2022-10-20T02:01:26.580Z,21.05
2022-10-20T02:03:56.559Z,16.42
2022-10-20T02:06:41.182Z,17.45
2022-10-20T02:09:15.751Z,23.83
2022-10-20T02:11:51.096Z,23.05
2022-10-20T02:14:20.123Z,21.25
2022-10-20T02:16:49.949Z,18.75
2022-10-20T02:19:20.941Z,20.02
2022-10-20T02:21:48.828Z,17.25
2022-10-20T02:24:17.530Z,24.27
2022-10-20T02:26:44.382Z,19.58
2022-10-20T02:29:18.406Z,19.17
2022-10-20T02:31:45.182Z,20.60
2022-10-20T02:34:12.739Z,24.35
2022-10-20T02:36:41.567Z,22.25
2022-10-20T02:39:09.379Z,21.65
2022-10-20T02:41:36.174Z,18.73
2022-10-20T02:44:03.303Z,22.33
2022-10-20T02:46:30.453Z,16.42
2022-10-20T02:48:56.804Z,20.48
2022-10-20T02:51:23.191Z,18.90
2022-10-20T02:53:49.559Z,21.15
2022-10-20T02:56:15.883Z,19.67
2022-10-20T02:58:42.327Z,23.83
2022-10-20T03:01:08.753Z,24.27
2022-10-20T03:03:35.544Z,17.13
2022-10-20T03:06:28.043Z,25.27
2022-10-20T03:08:54.465Z,22.17
2022-10-20T03:11:20.856Z,24.73
2022-10-20T03:13:47.301Z,27.25
2022-10-20T03:16:13.748Z,22.48
2022-10-20T03:18:40.117Z,22.15
2022-10-20T03:21:06.537Z,21.42
2022-10-20T03:23:32.951Z,26.38
2022-10-20T03:26:07.217Z,23.42
2022-10-20T03:28:33.981Z,23.67
2022-10-20T03:31:00.400Z,30.25
2022-10-20T03:33:35.044Z,28.90
2022-10-20T03:36:01.459Z,26.17
2022-10-20T03:38:28.014Z,19.48
2022-10-20T03:40:54.801Z,26.00
2022-10-20T03:43:21.455Z,30.20
2022-10-20T03:45:47.993Z,23.95
2022-10-20T03:48:14.601Z,26.88
2022-10-20T03:50:42.581Z,27.83
2022-10-20T03:53:13.027Z,24.25
2022-10-20T03:55:39.661Z,21.85
2022-10-20T03:58:06.129Z,21.48
2022-10-20T04:00:32.727Z,20.85
2022-10-20T04:02:59.198Z,25.40
2022-10-20T04:05:25.583Z,26.60
2022-10-20T04:07:51.985Z,23.27
2022-10-20T04:10:18.457Z,22.08
2022-10-20T04:12:46.218Z,25.33
2022-10-20T04:15:12.839Z,23.90
2022-10-20T04:20:11.489Z,33.28
2022-10-20T04:22:38.425Z,26.63
2022-10-20T04:25:05.518Z,31.95
2022-10-20T04:27:32.106Z,35.63
2022-10-20T04:29:58.463Z,37.95
2022-10-20T04:32:24.986Z,34.13
2022-10-20T04:34:51.485Z,34.13
2022-10-20T04:37:18.064Z,36.58
2022-10-20T04:39:44.723Z,31.95
2022-10-20T04:42:11.210Z,31.95
2022-10-20T04:44:37.572Z,31.88
2022-10-20T04:47:04.021Z,28.33
2022-10-20T04:49:30.628Z,29.77
2022-10-20T04:52:00.849Z,26.02
2022-10-20T04:54:27.540Z,26.95
2022-10-20T04:56:54.046Z,27.60
2022-10-20T04:59:20.509Z,28.50
2022-10-20T05:01:47.359Z,25.15
2022-10-20T05:04:14.231Z,28.02
2022-10-20T05:06:40.661Z,28.83
2022-10-20T05:09:07.298Z,25.88
2022-10-20T05:11:36.458Z,26.30
2022-10-20T05:14:04.552Z,26.55
2022-10-20T05:16:31.476Z,27.27
2022-10-20T05:18:57.858Z,27.27
2022-10-20T05:21:26.899Z,28.45
2022-10-20T05:24:01.553Z,26.48
2022-10-20T05:26:29.606Z,22.90
2022-10-20T05:28:55.999Z,22.95
2022-10-20T05:31:23.155Z,27.67
2022-10-20T05:33:55.229Z,21.75
2022-10-20T05:36:24.844Z,22.05
2022-10-20T05:38:53.890Z,21.23
2022-10-20T05:41:25.936Z,21.00
2022-10-20T05:43:54.523Z,22.52
2022-10-20T05:46:20.846Z,20.95
2022-10-20T05:48:47.734Z,16.80
2022-10-20T05:51:17.049Z,19.73
2022-10-20T05:53:44.638Z,20.38
2022-10-20T05:56:14.187Z,16.55
2022-10-20T05:58:41.694Z,19.35
2022-10-20T06:01:19.744Z,22.27
2022-10-20T06:03:49.305Z,17.70
2022-10-20T06:06:15.915Z,18.90
2022-10-20T06:08:42.612Z,18.58
2022-10-20T06:11:10.760Z,21.80
2022-10-20T06:13:37.271Z,18.83
2022-10-20T06:16:07.231Z,17.90
2022-10-20T06:18:34.777Z,20.67
2022-10-20T06:21:02.623Z,18.50
2022-10-20T06:23:31.202Z,16.83
2022-10-20T06:26:12.176Z,16.70
2022-10-20T06:31:16.403Z,15.73
2022-10-20T06:33:43.948Z,14.05
2022-10-20T06:36:11.586Z,15.40
2022-10-20T06:38:38.678Z,18.38
2022-10-20T06:41:08.864Z,16.08
2022-10-20T06:43:35.487Z,14.95
2022-10-20T06:46:09.041Z,24.83
2022-10-20T06:48:36.222Z,15.73
2022-10-20T06:51:05.901Z,16.98
2022-10-20T06:53:34.753Z,19.67
2022-10-20T06:56:07.129Z,19.05
2022-10-20T06:58:35.842Z,18.05
2022-10-20T07:01:10.165Z,23.15
2022-10-20T07:03:38.659Z,19.10
2022-10-20T07:06:06.787Z,15.55
2022-10-20T07:08:35.662Z,14.20
2022-10-20T07:11:23.285Z,14.70
2022-10-20T07:13:49.828Z,15.32
2022-10-20T07:16:21.587Z,13.32
2022-10-20T07:18:47.965Z,12.30
2022-10-20T07:21:19.809Z,12.60
2022-10-20T07:23:47.135Z,11.52
2022-10-20T07:26:15.508Z,11.50
2022-10-20T07:28:44.473Z,11.77
2022-10-20T07:31:14.126Z,12.57
2022-10-20T07:33:40.710Z,11.50
2022-10-20T07:36:14.298Z,10.73
2022-10-20T07:38:41.962Z,11.50
2022-10-20T07:41:08.927Z,10.10
2022-10-20T07:43:36.192Z,8.75
2022-10-20T07:46:02.641Z,8.18
2022-10-20T07:48:29.100Z,10.65
2022-10-20T07:51:12.367Z,11.40
2022-10-20T07:53:39.413Z,9.50
2022-10-20T07:56:06.119Z,8.85
2022-10-20T07:58:32.647Z,8.80
2022-10-20T08:00:59.180Z,7.72
2022-10-20T08:03:25.635Z,8.60
2022-10-20T08:05:52.022Z,8.75
2022-10-20T08:08:18.853Z,8.20
2022-10-20T08:10:45.204Z,6.05
2022-10-20T08:13:11.691Z,6.88
2022-10-20T08:15:40.980Z,5.68
2022-10-20T08:18:07.901Z,8.02
2022-10-20T08:20:36.459Z,8.20
2022-10-20T08:23:02.982Z,7.60
2022-10-20T08:25:29.457Z,9.13
2022-10-20T08:27:55.925Z,7.03
2022-10-20T08:30:24.180Z,7.07
2022-10-20T08:32:52.140Z,5.47
2022-10-20T08:35:19.038Z,6.25
2022-10-20T08:37:46.943Z,6.40
2022-10-20T08:40:18.285Z,6.13
2022-10-20T08:42:48.083Z,5.90
2022-10-20T08:45:18.303Z,8.27
2022-10-20T08:47:46.533Z,6.75
2022-10-20T08:50:15.113Z,6.13
2022-10-20T08:52:46.353Z,10.10
2022-10-20T08:55:24.880Z,5.15
2022-10-20T08:57:51.451Z,5.70
2022-10-20T09:00:21.539Z,7.47
2022-10-20T09:02:50.577Z,7.70
2022-10-20T09:05:21.359Z,5.53
2022-10-20T09:07:47.785Z,5.53
2022-10-20T09:10:25.700Z,6.93
2022-10-20T09:12:52.946Z,6.13
2022-10-20T09:15:21.076Z,5.60
2022-10-20T09:17:55.114Z,6.97
2022-10-20T09:20:38.729Z,5.07
2022-10-20T09:23:16.500Z,6.57
2022-10-20T09:25:52.696Z,5.57
2022-10-20T09:28:26.145Z,4.95
2022-10-20T09:30:54.067Z,5.30
2022-10-20T09:33:50.065Z,8.38
2022-10-20T09:36:21.206Z,5.00
2022-10-20T09:38:50.987Z,4.88
2022-10-20T09:41:21.817Z,5.93
2022-10-20T09:44:14.779Z,7.03
2022-10-20T09:46:47.392Z,4.78
2022-10-20T09:49:32.243Z,6.50
2022-10-20T09:52:03.015Z,6.07
2022-10-20T09:54:30.612Z,5.25
2022-10-20T09:57:09.324Z,7.13
2022-10-20T09:59:39.805Z,6.03
2022-10-20T10:02:30.678Z,4.82
2022-10-20T10:05:14.910Z,4.20
2022-10-20T10:07:44.040Z,5.68
2022-10-20T10:10:19.608Z,4.22
2022-10-20T10:12:58.407Z,8.02
2022-10-20T10:15:34.466Z,6.72
2022-10-20T10:18:14.178Z,4.57
2022-10-20T10:20:41.742Z,5.88
2022-10-20T10:23:18.925Z,4.70
2022-10-20T10:25:45.650Z,8.60
2022-10-20T10:28:41.218Z,5.60
2022-10-20T10:31:23.481Z,5.45
2022-10-20T10:34:01.500Z,5.07
2022-10-20T10:36:36.394Z,5.22
2022-10-20T10:39:05.395Z,6.57
2022-10-20T10:41:49.663Z,6.50
2022-10-20T10:44:38.474Z,5.80
2022-10-20T10:47:14.449Z,6.13
2022-10-20T10:49:51.421Z,6.38
2022-10-20T10:52:44.275Z,4.45
2022-10-20T10:55:47.158Z,7.78
2022-10-20T10:58:36.130Z,8.18
2022-10-20T11:01:05.728Z,6.03
2022-10-20T11:03:44.759Z,5.18
2022-10-20T11:06:38.104Z,7.35
2022-10-20T11:09:26.054Z,4.13
2022-10-20T11:12:13.852Z,5.45
2022-10-20T11:15:20.699Z,8.05
2022-10-20T11:17:54.806Z,5.30
2022-10-20T11:20:44.667Z,7.50
2022-10-20T11:23:35.210Z,6.43
2022-10-20T11:26:25.436Z,6.55
2022-10-20T11:28:56.491Z,5.68
2022-10-20T11:31:29.909Z,9.65
2022-10-20T11:34:17.973Z,6.80
2022-10-20T11:36:52.706Z,5.38
2022-10-20T11:39:37.842Z,5.65
2022-10-20T11:42:23.614Z,5.05
2022-10-20T11:44:52.372Z,8.30
2022-10-20T11:47:32.064Z,6.30
2022-10-20T11:49:58.960Z,11.87
2022-10-20T11:52:48.742Z,7.53
2022-10-20T11:55:40.274Z,8.02
2022-10-20T11:58:49.753Z,6.47
2022-10-20T12:01:28.937Z,5.18
2022-10-20T12:04:27.513Z,5.90
2022-10-20T12:07:13.189Z,7.88
2022-10-20T12:10:01.842Z,8.38
2022-10-20T12:12:37.681Z,6.88
2022-10-20T12:15:22.608Z,7.70
2022-10-20T12:17:50.951Z,6.30
2022-10-20T12:20:37.620Z,7.47
2022-10-20T12:23:05.042Z,6.03
2022-10-20T12:25:31.594Z,9.98
2022-10-20T12:28:22.411Z,8.55
2022-10-20T12:30:57.347Z,7.85
2022-10-20T12:33:40.512Z,8.38
2022-10-20T12:36:26.290Z,7.68
2022-10-20T12:38:54.744Z,7.55
2022-10-20T12:41:28.156Z,11.70
2022-10-20T12:44:00.193Z,11.77
2022-10-20T12:46:29.511Z,8.73
2022-10-20T12:49:01.695Z,10.50
2022-10-20T12:51:50.850Z,7.43
2022-10-20T12:54:28.430Z,10.40
2022-10-20T12:56:59.388Z,11.07
2022-10-20T12:59:28.997Z,7.07
2022-10-20T13:02:10.855Z,7.63
2022-10-20T13:05:00.247Z,6.10
2022-10-20T13:07:48.591Z,6.35
2022-10-20T13:10:41.113Z,8.85
2022-10-20T13:13:07.776Z,5.65
2022-10-20T13:15:36.963Z,5.90
2022-10-20T13:18:12.325Z,7.53
2022-10-20T13:21:16.240Z,5.20
2022-10-20T13:23:53.640Z,8.15
2022-10-20T13:26:31.026Z,11.75
2022-10-20T13:29:00.123Z,12.35
2022-10-20T13:31:41.826Z,8.40
2022-10-20T13:34:26.732Z,9.80
2022-10-20T13:37:01.983Z,7.63
2022-10-20T13:39:40.998Z,11.52
2022-10-20T13:42:07.330Z,8.30
2022-10-20T13:44:54.432Z,11.40
2022-10-20T13:47:52.841Z,9.20
2022-10-20T13:50:33.990Z,13.98
2022-10-20T13:53:10.239Z,8.90
2022-10-20T13:55:57.299Z,8.55
2022-10-20T13:58:25.601Z,7.70
2022-10-20T14:01:07.077Z,7.43
2022-10-20T14:03:44.997Z,8.93
2022-10-20T14:06:34.893Z,12.27
2022-10-20T14:09:15.314Z,9.68
2022-10-20T14:11:43.100Z,14.38
2022-10-20T14:14:14.336Z,10.75
2022-10-20T14:16:50.704Z,12.40
2022-10-20T14:19:20.717Z,10.10
2022-10-20T14:21:49.166Z,15.52
2022-10-20T14:24:23.519Z,13.45
2022-10-20T14:26:50.917Z,14.07
2022-10-20T14:29:18.902Z,17.17
2022-10-20T14:31:47.206Z,18.92
2022-10-20T14:34:22.906Z,17.02
2022-10-20T14:36:51.687Z,18.70
2022-10-20T14:39:31.790Z,13.57
2022-10-20T14:42:00.640Z,13.75
2022-10-20T14:44:31.416Z,15.85
2022-10-20T14:47:01.827Z,15.00
2022-10-20T14:49:32.396Z,16.33
2022-10-20T14:51:59.973Z,12.40
2022-10-20T14:54:37.395Z,18.02
2022-10-20T14:57:10.391Z,15.88
2022-10-20T14:59:52.061Z,14.10
2022-10-20T15:02:22.576Z,13.82
2022-10-20T15:04:50.237Z,18.98
2022-10-20T15:07:24.934Z,16.42
2022-10-20T15:09:53.793Z,19.65
2022-10-20T15:12:23.265Z,15.48
2022-10-20T15:14:54.252Z,14.93
2022-10-20T15:17:43.252Z,19.00
2022-10-20T15:20:31.270Z,22.63
2022-10-20T15:23:02.805Z,19.50
2022-10-20T15:25:43.548Z,17.20
2022-10-20T15:28:22.959Z,19.55
2022-10-20T15:30:49.590Z,19.25
2022-10-20T15:33:15.950Z,20.75
2022-10-20T15:35:42.298Z,25.15
2022-10-20T15:51:47.814Z,19.83
2022-10-20T15:54:16.555Z,20.42
2022-10-20T15:56:44.911Z,25.83
2022-10-20T15:59:11.752Z,25.60
2022-10-20T16:01:38.757Z,21.73
2022-10-20T16:04:20.824Z,23.85
2022-10-20T16:06:47.201Z,26.58
2022-10-20T16:09:16.004Z,24.67
2022-10-20T16:11:43.696Z,20.58
2022-10-20T16:14:10.248Z,22.85
2022-10-20T16:16:39.765Z,28.58
2022-10-20T16:19:06.174Z,20.75
2022-10-20T16:21:33.561Z,21.23
2022-10-20T16:24:01.493Z,23.45
2022-10-20T16:26:28.509Z,17.30
2022-10-20T16:28:55.092Z,24.20
2022-10-20T16:31:22.620Z,20.10
2022-10-20T16:33:48.990Z,24.77
2022-10-20T16:36:16.807Z,19.98
2022-10-20T16:38:43.569Z,21.95
2022-10-20T16:41:12.559Z,18.42
2022-10-20T16:43:41.181Z,18.40
2022-10-20T16:46:09.734Z,23.45
2022-10-20T16:48:37.914Z,24.63
2022-10-20T16:51:07.323Z,26.10
2022-10-20T16:53:34.222Z,24.13
2022-10-20T16:56:00.757Z,24.73
2022-10-20T16:58:27.447Z,25.73
2022-10-20T17:01:03.260Z,18.27
2022-10-20T17:03:30.047Z,24.98
2022-10-20T17:05:59.251Z,20.90
2022-10-20T17:08:26.063Z,23.50
2022-10-20T17:10:57.250Z,25.98
2022-10-20T17:13:25.628Z,24.52
2022-10-20T17:15:52.163Z,26.63
2022-10-20T17:18:19.315Z,26.42
2022-10-20T17:20:46.187Z,27.88
2022-10-20T17:23:12.707Z,26.63
2022-10-20T17:25:39.273Z,28.33
2022-10-20T17:28:05.634Z,25.83
2022-10-20T17:30:32.060Z,26.60
2022-10-20T17:32:58.418Z,27.63
2022-10-20T17:35:24.782Z,25.67
2022-10-20T17:37:51.108Z,26.08
2022-10-20T17:42:43.893Z,20.42
2022-10-20T17:45:10.941Z,25.85
2022-10-20T17:47:37.255Z,33.72
2022-10-20T17:50:04.214Z,28.83
2022-10-20T17:52:30.585Z,26.63
2022-10-20T17:54:56.918Z,26.52
2022-10-20T17:57:23.179Z,27.33
2022-10-20T17:59:53.402Z,24.98
2022-10-20T18:02:20.674Z,26.80
2022-10-20T18:04:47.380Z,27.92
2022-10-20T18:07:13.730Z,26.73
2022-10-20T18:09:40.997Z,22.52
2022-10-20T18:12:07.441Z,23.50
2022-10-20T18:14:34.086Z,20.95
2022-10-20T18:17:00.748Z,22.45
2022-10-20T18:19:27.176Z,24.15
2022-10-20T18:21:53.528Z,26.23
2022-10-20T18:24:23.385Z,19.63
2022-10-20T18:26:49.911Z,27.38
2022-10-20T18:29:16.966Z,28.23
2022-10-20T18:31:48.141Z,29.17
2022-10-20T18:34:16.897Z,23.73
2022-10-20T18:36:46.042Z,26.48
2022-10-20T18:39:13.335Z,24.00
2022-10-20T18:41:41.200Z,21.20
2022-10-20T18:44:12.015Z,24.98
2022-10-20T18:46:39.408Z,25.30
2022-10-20T18:49:07.448Z,28.33
2022-10-20T18:51:35.813Z,24.88
2022-10-20T18:54:03.745Z,29.35
2022-10-20T18:56:31.632Z,33.15
2022-10-20T18:59:01.017Z,22.80
2022-10-20T19:01:33.690Z,24.85
2022-10-20T19:04:01.089Z,30.23
2022-10-20T19:06:32.876Z,29.25
2022-10-20T19:09:02.123Z,32.33
2022-10-20T19:11:31.815Z,34.25
2022-10-20T19:13:59.096Z,27.98
2022-10-20T19:16:28.066Z,26.30
2022-10-20T19:18:56.526Z,28.65
2022-10-20T19:21:25.066Z,26.15
2022-10-20T19:23:53.776Z,31.17
2022-10-20T19:26:24.275Z,33.17
2022-10-20T19:29:06.024Z,32.50
2022-10-20T19:31:42.238Z,25.15
2022-10-20T19:34:27.243Z,29.38
2022-10-20T19:36:54.602Z,26.33
2022-10-20T19:39:28.248Z,25.45
2022-10-20T19:41:55.624Z,28.77
2022-10-20T19:44:23.410Z,24.52
2022-10-20T19:46:51.580Z,28.50
2022-10-20T19:49:20.489Z,29.05
2022-10-20T19:51:47.714Z,26.95
2022-10-20T19:54:14.314Z,25.55
2022-10-20T19:56:41.667Z,26.95
2022-10-20T19:59:13.953Z,37.33
2022-10-20T20:01:40.554Z,37.70
2022-10-20T20:04:07.473Z,33.70
2022-10-20T20:06:34.656Z,29.15
2022-10-20T20:09:05.731Z,30.30
2022-10-20T20:11:33.340Z,30.08
2022-10-20T20:14:02.798Z,35.60
2022-10-20T20:16:29.639Z,31.60
2022-10-20T20:18:56.348Z,33.33
2022-10-20T20:21:24.738Z,26.38
2022-10-20T20:23:59.378Z,35.53
2022-10-20T20:26:28.340Z,32.38
2022-10-20T20:28:55.485Z,30.42
2022-10-20T20:31:23.302Z,42.40
2022-10-20T20:33:50.229Z,30.83
2022-10-20T20:36:16.685Z,37.08
2022-10-20T20:38:43.053Z,33.42
2022-10-20T20:41:13.241Z,32.63
2022-10-20T20:43:39.816Z,39.53
2022-10-20T20:46:13.035Z,34.38
2022-10-20T20:48:40.211Z,28.20
2022-10-20T20:51:07.612Z,29.50
2022-10-20T20:53:35.641Z,31.88
2022-10-20T20:56:05.704Z,25.70
2022-10-20T20:58:33.831Z,35.35
2022-10-20T21:01:06.386Z,28.08
2022-10-20T21:03:33.567Z,28.83
2022-10-20T21:06:08.301Z,29.55
2022-10-20T21:08:36.936Z,25.52
2022-10-20T21:11:08.733Z,28.80
2022-10-20T21:13:36.565Z,32.28
2022-10-20T21:16:11.981Z,28.58
2022-10-20T21:18:39.646Z,25.77
2022-10-20T21:21:18.861Z,37.65
2022-10-20T21:23:46.473Z,34.67
2022-10-20T21:26:14.961Z,39.33
2022-10-20T21:28:42.483Z,28.08
2022-10-20T21:31:12.049Z,32.97
2022-10-20T21:33:39.526Z,30.40
2022-10-20T21:36:14.435Z,33.45
2022-10-20T21:38:43.112Z,33.00
2022-10-20T21:41:21.809Z,32.47
2022-10-20T21:43:53.346Z,27.10
2022-10-20T21:46:26.075Z,34.25
2022-10-20T21:48:55.102Z,32.42
2022-10-20T21:51:24.321Z,34.35
2022-10-20T21:53:57.605Z,34.85
2022-10-20T21:56:24.804Z,31.48
2022-10-20T21:58:52.256Z,40.72
2022-10-20T22:01:21.351Z,27.38
2022-10-20T22:03:48.573Z,28.48
2022-10-20T22:06:17.695Z,30.13
2022-10-20T22:08:46.869Z,25.45
2022-10-20T22:11:16.447Z,30.83
2022-10-20T22:13:43.071Z,27.63
2022-10-20T22:16:13.074Z,28.33
2022-10-20T22:18:39.671Z,29.45
2022-10-20T22:21:12.471Z,32.80
2022-10-20T22:23:41.445Z,28.75
2022-10-20T22:26:09.780Z,29.70
2022-10-20T22:28:37.166Z,24.45
2022-10-20T22:31:04.960Z,23.45
2022-10-20T22:33:32.472Z,24.08
2022-10-20T22:35:59.036Z,27.30
2022-10-20T22:38:25.445Z,28.23
2022-10-20T22:40:51.860Z,31.77
2022-10-20T22:43:18.611Z,24.92
2022-10-20T22:45:44.991Z,29.20
2022-10-20T22:48:11.331Z,26.17
2022-10-20T22:50:38.010Z,25.10
2022-10-20T22:53:04.356Z,29.17
2022-10-20T22:55:30.917Z,24.95
2022-10-20T23:00:23.723Z,28.33
2022-10-20T23:02:50.386Z,28.23
2022-10-20T23:05:16.838Z,26.98
2022-10-20T23:07:43.225Z,26.92
2022-10-20T23:10:09.854Z,25.10
2022-10-20T23:12:36.820Z,25.08
2022-10-20T23:15:04.642Z,30.52
2022-10-20T23:17:31.335Z,29.25
2022-10-20T23:19:57.960Z,33.42
2022-10-20T23:22:24.718Z,29.60
2022-10-20T23:24:51.113Z,23.88
2022-10-20T23:27:17.683Z,27.08
2022-10-20T23:29:44.121Z,28.42
2022-10-20T23:32:10.669Z,26.20
2022-10-20T23:34:37.207Z,25.05
2022-10-20T23:37:03.600Z,27.35
2022-10-20T23:39:29.949Z,34.53
2022-10-20T23:41:56.532Z,31.38
2022-10-20T23:44:22.915Z,28.08
2022-10-20T23:46:49.282Z,23.25
2022-10-20T23:49:15.677Z,24.88
2022-10-20T23:51:42.014Z,29.30
2022-10-20T23:54:08.375Z,33.42
2022-10-20T23:56:35.002Z,35.17
2022-10-20T23:59:01.394Z,35.78
